Lodgepole, Nebraska
Current Conditions -  °F | °C
As of 10:53 AM on Friday 21 Nov 2014 (Local Time) from KSNY Reporting Station
Clear Clear  
Wind Chill: 52°   Ceiling: Unl
Heat Index: 52°   Visibility: 10mi
Dew Point: 21°   Wind: 6mph
Humidity: 30%   Direction: 250°WSW
Pressure: 29.95"   Gusts: NA
Location:  41.15°N, 102.64°W
Report Text: KSNY 211753Z AUTO 25005KT 10SM CLR 11/M06 A2995 RMK AO2 SLP146 T01111061 10128 21022 58001
Loading
Personal Weather Stations






























Interactive Weather Map New forecast layout! Learn more

10-Day Weather Forecast

Advertisements
Track Severe Weather on mobile